createdAt,value
2019-03-09T00:01:23.377Z,7.30
2019-03-09T00:03:52.455Z,7.30
2019-03-09T00:06:21.658Z,7.30
2019-03-09T00:08:50.722Z,7.30
2019-03-09T00:11:19.755Z,7.30
2019-03-09T00:13:48.801Z,7.30
2019-03-09T00:16:17.932Z,7.30
2019-03-09T00:18:47.151Z,7.30
2019-03-09T00:21:16.110Z,7.30
2019-03-09T00:24:02.535Z,7.30
2019-03-09T00:26:50.546Z,7.30
2019-03-09T00:29:27.377Z,7.40
2019-03-09T00:31:59.634Z,7.30
2019-03-09T00:34:28.650Z,7.30
2019-03-09T00:36:58.002Z,7.40
2019-03-09T00:39:26.954Z,7.40
2019-03-09T00:41:56.006Z,7.40
2019-03-09T00:44:25.064Z,7.40
2019-03-09T00:46:54.090Z,7.40
2019-03-09T00:49:24.850Z,7.40
2019-03-09T00:51:53.905Z,7.40
2019-03-09T00:54:22.942Z,7.40
2019-03-09T00:56:51.994Z,7.40
2019-03-09T00:59:21.055Z,7.40
2019-03-09T01:01:50.098Z,7.50
2019-03-09T01:04:19.121Z,7.40
2019-03-09T01:06:48.190Z,7.40
2019-03-09T01:09:17.150Z,7.40
2019-03-09T01:11:46.191Z,7.40
2019-03-09T01:14:15.170Z,7.50
2019-03-09T01:16:44.186Z,7.50
2019-03-09T01:19:13.240Z,7.50
2019-03-09T01:21:42.238Z,7.50
2019-03-09T01:24:11.270Z,7.50
2019-03-09T01:26:40.262Z,7.50
2019-03-09T01:29:09.338Z,7.50
2019-03-09T01:31:38.290Z,7.50
2019-03-09T01:34:07.322Z,7.50
2019-03-09T01:36:36.310Z,7.50
2019-03-09T01:39:06.017Z,7.60
2019-03-09T01:41:34.978Z,7.60
2019-03-09T01:44:03.944Z,7.60
2019-03-09T01:46:32.956Z,7.60
2019-03-09T01:49:02.008Z,7.60
2019-03-09T01:51:31.205Z,7.70
2019-03-09T01:54:00.173Z,7.70
2019-03-09T01:56:29.218Z,7.70
2019-03-09T01:58:58.298Z,7.70
2019-03-09T02:01:27.280Z,7.70
2019-03-09T02:03:56.411Z,7.80
2019-03-09T02:06:25.467Z,7.80
2019-03-09T02:08:54.529Z,7.80
2019-03-09T02:11:23.578Z,7.80
2019-03-09T02:13:52.647Z,7.80
2019-03-09T02:16:21.678Z,7.80
2019-03-09T02:18:50.718Z,7.80
2019-03-09T02:21:19.768Z,7.90
2019-03-09T02:23:48.805Z,7.90
2019-03-09T02:26:17.763Z,7.90
2019-03-09T02:28:46.831Z,7.90
2019-03-09T02:31:15.868Z,7.90
2019-03-09T02:33:44.895Z,8.00
2019-03-09T02:36:13.963Z,7.90
2019-03-09T02:38:57.269Z,7.90
2019-03-09T02:41:26.239Z,8.00
2019-03-09T02:43:55.271Z,8.00
2019-03-09T02:46:24.336Z,8.00
2019-03-09T02:48:53.382Z,8.00
2019-03-09T02:51:22.347Z,8.00
2019-03-09T02:53:51.398Z,8.00
2019-03-09T02:56:20.383Z,8.00
2019-03-09T02:58:49.367Z,8.00
2019-03-09T03:01:46.588Z,8.00
2019-03-09T03:04:15.636Z,8.10
2019-03-09T03:06:44.603Z,8.10
2019-03-09T03:09:13.610Z,8.10
2019-03-09T03:11:42.635Z,8.10
2019-03-09T03:14:11.605Z,8.10
2019-03-09T03:16:40.600Z,8.10
2019-03-09T03:19:09.582Z,8.10
2019-03-09T03:21:38.625Z,8.10
2019-03-09T03:24:07.714Z,8.10
2019-03-09T03:26:36.807Z,8.10
2019-03-09T03:29:05.933Z,8.10
2019-03-09T03:31:35.063Z,8.10
2019-03-09T03:34:04.130Z,8.10
2019-03-09T03:36:33.223Z,8.10
2019-03-09T03:39:02.310Z,8.20
2019-03-09T03:41:31.258Z,8.10
2019-03-09T03:44:00.294Z,8.10
2019-03-09T03:46:29.289Z,8.10
2019-03-09T03:48:58.334Z,8.20
2019-03-09T03:51:27.435Z,8.10
2019-03-09T03:53:56.504Z,8.10
2019-03-09T03:56:25.462Z,8.10
2019-03-09T03:58:54.515Z,8.00
2019-03-09T04:01:23.555Z,8.00
2019-03-09T04:03:52.523Z,8.00
2019-03-09T04:06:21.562Z,7.90
2019-03-09T04:08:50.562Z,7.90
2019-03-09T04:11:19.611Z,7.90
2019-03-09T04:13:48.646Z,7.90
2019-03-09T04:16:17.643Z,7.80
2019-03-09T04:18:46.605Z,7.80
2019-03-09T04:21:15.563Z,7.80
2019-03-09T04:23:44.611Z,7.70
2019-03-09T04:26:13.686Z,7.70
2019-03-09T04:28:42.679Z,7.70
2019-03-09T04:31:11.723Z,7.70
2019-03-09T04:33:40.685Z,7.70
2019-03-09T04:36:09.734Z,7.70
2019-03-09T04:38:38.771Z,7.60
2019-03-09T04:41:07.799Z,7.60
2019-03-09T04:43:36.773Z,7.60
2019-03-09T04:46:05.742Z,7.60
2019-03-09T04:48:34.794Z,7.60
2019-03-09T04:51:03.843Z,7.60
2019-03-09T04:53:32.802Z,7.50
2019-03-09T04:56:01.833Z,7.50
2019-03-09T04:58:30.908Z,7.50
2019-03-09T05:00:59.878Z,7.50
2019-03-09T05:03:28.998Z,7.50
2019-03-09T05:05:57.994Z,7.50
2019-03-09T05:08:49.402Z,7.40
2019-03-09T05:11:22.295Z,7.50
2019-03-09T05:14:19.349Z,7.50
2019-03-09T05:16:48.401Z,7.40
2019-03-09T05:19:17.423Z,7.40
2019-03-09T05:21:46.478Z,7.50
2019-03-09T05:24:15.519Z,7.40
2019-03-09T05:26:45.094Z,7.40
2019-03-09T05:29:14.199Z,7.40
2019-03-09T05:31:43.256Z,7.40
2019-03-09T05:34:12.324Z,7.50
2019-03-09T05:36:41.368Z,7.40
2019-03-09T05:39:10.422Z,7.40
2019-03-09T05:41:39.486Z,7.40
2019-03-09T05:44:08.535Z,7.50
2019-03-09T05:46:37.594Z,7.50
2019-03-09T05:49:06.638Z,7.50
2019-03-09T05:51:35.686Z,7.50
2019-03-09T05:54:04.689Z,7.50
2019-03-09T05:56:33.670Z,7.50
2019-03-09T05:59:04.291Z,7.50
2019-03-09T06:01:33.322Z,7.60
2019-03-09T06:04:02.294Z,7.60
2019-03-09T06:06:31.270Z,7.60
2019-03-09T06:09:00.308Z,7.60
2019-03-09T06:11:29.327Z,7.60
2019-03-09T06:13:58.382Z,7.70
2019-03-09T06:16:27.362Z,7.70
2019-03-09T06:18:56.391Z,7.80
2019-03-09T06:21:25.590Z,7.80
2019-03-09T06:23:54.620Z,7.80
2019-03-09T06:26:23.578Z,7.80
2019-03-09T06:28:52.570Z,7.80
2019-03-09T06:31:21.544Z,7.80
2019-03-09T06:33:52.519Z,7.80
2019-03-09T06:36:55.606Z,7.80
2019-03-09T06:39:30.512Z,7.90
2019-03-09T06:42:38.367Z,7.90
2019-03-09T06:45:10.179Z,7.90
2019-03-09T06:47:39.227Z,7.90
2019-03-09T06:50:09.486Z,7.90
2019-03-09T06:52:38.534Z,7.90
2019-03-09T06:55:08.653Z,8.00
2019-03-09T06:57:37.690Z,8.00
2019-03-09T07:00:28.905Z,8.00
2019-03-09T07:02:57.874Z,8.00
2019-03-09T07:05:26.949Z,8.10
2019-03-09T07:07:55.941Z,8.10
2019-03-09T07:10:24.983Z,8.20
2019-03-09T07:12:54.029Z,8.20
2019-03-09T07:15:28.479Z,8.20
2019-03-09T07:18:04.552Z,8.20
2019-03-09T07:20:33.546Z,8.30
2019-03-09T07:23:02.583Z,8.30
2019-03-09T07:25:31.614Z,8.30
2019-03-09T07:28:05.341Z,8.40
2019-03-09T07:30:34.326Z,8.40
2019-03-09T07:33:03.425Z,8.40
2019-03-09T07:35:32.547Z,8.40
2019-03-09T07:38:01.500Z,8.50
2019-03-09T07:40:30.596Z,8.50
2019-03-09T07:42:59.669Z,8.60
2019-03-09T07:45:28.716Z,8.60
2019-03-09T07:47:57.726Z,8.60
2019-03-09T07:50:26.785Z,8.50
2019-03-09T07:52:55.832Z,8.50
2019-03-09T07:55:24.902Z,8.60
2019-03-09T07:57:58.575Z,8.60
2019-03-09T08:00:27.601Z,8.60
2019-03-09T08:02:56.573Z,8.60
2019-03-09T08:05:25.646Z,8.60
2019-03-09T08:07:54.691Z,8.60
2019-03-09T08:10:23.831Z,8.70
2019-03-09T08:12:53.019Z,8.70
2019-03-09T08:15:22.062Z,8.80
2019-03-09T08:17:51.030Z,8.70
2019-03-09T08:20:20.161Z,8.80
2019-03-09T08:22:49.119Z,8.80
2019-03-09T08:25:18.173Z,8.80
2019-03-09T08:27:47.382Z,8.80
2019-03-09T08:30:18.140Z,8.80
2019-03-09T08:32:47.354Z,8.80
2019-03-09T08:35:17.583Z,8.80
2019-03-09T08:37:46.593Z,8.90
2019-03-09T08:40:15.851Z,8.80
2019-03-09T08:42:44.926Z,8.90
2019-03-09T08:45:15.211Z,8.80
2019-03-09T08:47:51.594Z,8.80
2019-03-09T08:50:16.603Z,8.90
2019-03-09T08:52:45.639Z,8.90
2019-03-09T08:55:17.719Z,8.90
2019-03-09T08:57:46.123Z,8.90
2019-03-09T09:00:17.487Z,8.90
2019-03-09T09:02:46.594Z,8.90
2019-03-09T09:05:15.644Z,9.00
2019-03-09T09:07:44.683Z,9.00
2019-03-09T09:10:13.731Z,9.00
2019-03-09T09:12:42.738Z,9.00
2019-03-09T09:15:14.772Z,9.10
2019-03-09T09:17:43.294Z,9.10
2019-03-09T09:20:14.813Z,9.10
2019-03-09T09:22:43.852Z,9.20
2019-03-09T09:25:13.474Z,9.20
2019-03-09T09:27:42.570Z,9.20
2019-03-09T09:30:17.794Z,9.20
2019-03-09T09:32:46.795Z,9.30
2019-03-09T09:35:15.826Z,9.30
2019-03-09T09:37:44.940Z,9.50
2019-03-09T09:40:15.938Z,9.60
2019-03-09T09:42:44.909Z,9.60
2019-03-09T09:45:14.110Z,9.80
2019-03-09T09:47:43.202Z,9.90
2019-03-09T09:50:12.281Z,10.00
2019-03-09T09:52:41.266Z,10.00
2019-03-09T09:55:11.870Z,10.00
2019-03-09T09:57:40.974Z,10.00
2019-03-09T10:00:15.852Z,10.00
2019-03-09T10:02:45.048Z,10.00
2019-03-09T10:05:14.153Z,10.00
2019-03-09T10:07:43.210Z,10.00
2019-03-09T10:10:13.815Z,10.20
2019-03-09T10:12:42.790Z,10.30
2019-03-09T10:15:14.425Z,10.40
2019-03-09T10:17:43.587Z,10.40
2019-03-09T10:20:12.685Z,10.30
2019-03-09T10:22:41.729Z,10.30
2019-03-09T10:25:10.832Z,10.40
2019-03-09T10:27:39.899Z,10.50
2019-03-09T10:36:37.774Z,10.80
2019-03-09T10:39:06.776Z,10.90
2019-03-09T10:41:35.822Z,11.00
2019-03-09T10:44:05.120Z,11.00
2019-03-09T10:46:34.169Z,11.00
2019-03-09T10:49:04.441Z,11.00
2019-03-09T10:51:33.514Z,11.00
2019-03-09T10:54:02.550Z,11.00
2019-03-09T10:56:31.523Z,11.10
2019-03-09T10:59:00.625Z,11.30
2019-03-09T11:01:29.599Z,11.50
2019-03-09T11:03:59.569Z,11.50
2019-03-09T11:06:28.717Z,11.40
2019-03-09T11:08:57.681Z,11.30
2019-03-09T11:11:26.742Z,11.30
2019-03-09T11:13:55.736Z,11.20
2019-03-09T11:16:24.769Z,11.30
2019-03-09T11:18:53.739Z,11.30
2019-03-09T11:21:22.813Z,11.30
2019-03-09T11:23:51.894Z,11.50
2019-03-09T11:26:21.099Z,11.60
2019-03-09T11:28:50.166Z,11.70
2019-03-09T11:31:19.215Z,11.80
2019-03-09T11:33:48.242Z,11.80
2019-03-09T11:36:17.267Z,11.70
2019-03-09T11:38:46.250Z,11.60
2019-03-09T11:41:19.135Z,11.60
2019-03-09T11:43:46.034Z,11.50
2019-03-09T11:46:15.075Z,11.50
2019-03-09T11:48:44.073Z,11.40
2019-03-09T11:51:13.135Z,11.40
2019-03-09T11:53:42.202Z,11.40
2019-03-09T11:56:11.255Z,11.50
2019-03-09T11:58:40.247Z,11.50
2019-03-09T12:01:09.282Z,11.50
2019-03-09T12:03:38.338Z,11.50
2019-03-09T12:06:07.415Z,11.40
2019-03-09T12:08:36.407Z,11.20
2019-03-09T12:11:05.449Z,11.00
2019-03-09T12:13:34.422Z,10.70
2019-03-09T12:16:03.414Z,10.50
2019-03-09T12:18:32.466Z,10.40
2019-03-09T12:21:01.554Z,10.30
2019-03-09T12:23:30.598Z,10.30
2019-03-09T12:25:59.574Z,10.30
2019-03-09T12:28:28.666Z,10.30
2019-03-09T12:30:57.738Z,10.40
2019-03-09T12:33:26.762Z,10.40
2019-03-09T12:35:55.856Z,10.40
2019-03-09T12:38:24.947Z,10.40
2019-03-09T12:40:54.019Z,10.50
2019-03-09T12:43:23.026Z,10.50
2019-03-09T12:45:52.092Z,10.60
2019-03-09T12:48:21.125Z,10.60
2019-03-09T12:50:50.122Z,10.60
2019-03-09T12:53:19.176Z,10.70
2019-03-09T12:55:48.194Z,10.70
2019-03-09T12:58:17.270Z,10.70
2019-03-09T13:00:46.314Z,10.70
2019-03-09T13:03:15.403Z,10.70
2019-03-09T13:05:46.682Z,10.70
2019-03-09T13:08:15.219Z,10.80
2019-03-09T13:10:44.269Z,10.90
2019-03-09T13:13:13.344Z,10.90
2019-03-09T13:15:42.463Z,10.90
2019-03-09T13:18:11.425Z,10.80
2019-03-09T13:20:40.494Z,10.70
2019-03-09T13:23:09.553Z,10.70
2019-03-09T13:25:38.862Z,10.80
2019-03-09T13:28:08.043Z,10.80
2019-03-09T13:30:37.021Z,11.00
2019-03-09T13:33:06.066Z,11.00
2019-03-09T13:35:35.278Z,11.00
2019-03-09T13:38:04.402Z,10.90
2019-03-09T13:40:33.466Z,10.90
2019-03-09T13:43:02.553Z,10.90
2019-03-09T13:45:31.615Z,10.90
2019-03-09T13:48:00.590Z,10.90
2019-03-09T13:50:29.700Z,10.90
2019-03-09T13:52:58.859Z,10.80
2019-03-09T13:55:30.744Z,10.70
2019-03-09T13:57:59.823Z,10.60
2019-03-09T14:00:36.932Z,10.40
2019-03-09T14:02:59.541Z,10.20
2019-03-09T14:05:28.552Z,9.90
2019-03-09T14:07:57.604Z,9.50
2019-03-09T14:10:26.570Z,9.00
2019-03-09T14:12:55.649Z,8.90
2019-03-09T14:15:24.706Z,8.80
2019-03-09T14:17:53.736Z,8.50
2019-03-09T14:20:22.828Z,8.00
2019-03-09T14:22:51.861Z,7.20
2019-03-09T14:25:20.930Z,6.90
2019-03-09T14:27:49.985Z,6.70
2019-03-09T14:30:19.038Z,6.70
2019-03-09T14:32:48.066Z,6.60
2019-03-09T14:35:17.161Z,6.70
2019-03-09T14:37:46.223Z,6.90
2019-03-09T14:40:15.234Z,7.10
2019-03-09T14:42:44.362Z,7.20
2019-03-09T14:45:15.154Z,7.30
2019-03-09T14:47:44.194Z,7.40
2019-03-09T14:50:13.352Z,7.50
2019-03-09T14:52:42.406Z,7.60
2019-03-09T14:55:11.549Z,7.60
2019-03-09T14:57:40.640Z,7.60
2019-03-09T15:00:13.179Z,7.70
2019-03-09T15:02:42.229Z,7.60
2019-03-09T15:05:11.349Z,7.60
2019-03-09T15:07:40.378Z,7.60
2019-03-09T15:10:09.698Z,7.60
2019-03-09T15:12:38.686Z,7.70
2019-03-09T15:15:08.730Z,7.70
2019-03-09T15:17:37.833Z,7.80
2019-03-09T15:20:07.045Z,7.80
2019-03-09T15:22:36.102Z,7.80
2019-03-09T15:25:05.342Z,7.80
2019-03-09T15:27:34.508Z,7.90
2019-03-09T15:30:03.604Z,7.90
2019-03-09T15:32:32.649Z,8.00
2019-03-09T15:35:01.692Z,8.00
2019-03-09T15:37:30.751Z,8.00
2019-03-09T15:39:59.862Z,8.00
2019-03-09T15:42:28.926Z,8.00
2019-03-09T15:44:57.949Z,8.10
2019-03-09T15:47:27.061Z,8.10
2019-03-09T15:49:56.109Z,8.10
2019-03-09T15:52:25.162Z,8.20
2019-03-09T15:54:54.291Z,8.20
2019-03-09T15:57:23.324Z,8.20
2019-03-09T15:59:52.402Z,8.20
2019-03-09T16:02:21.602Z,8.20
2019-03-09T16:04:50.662Z,8.20
2019-03-09T16:07:19.710Z,8.20
2019-03-09T16:09:48.779Z,8.20
2019-03-09T16:12:17.819Z,8.30
2019-03-09T16:14:46.862Z,8.30
2019-03-09T16:17:15.863Z,8.30
2019-03-09T16:19:45.014Z,8.20
2019-03-09T16:22:14.071Z,8.20
2019-03-09T16:24:43.057Z,8.20
2019-03-09T16:27:12.006Z,8.10
2019-03-09T16:29:41.046Z,8.10
2019-03-09T16:32:10.129Z,8.00
2019-03-09T16:34:39.183Z,8.00
2019-03-09T16:37:08.201Z,8.00
2019-03-09T16:39:37.294Z,8.00
2019-03-09T16:42:06.351Z,8.00
2019-03-09T16:44:35.389Z,8.00
2019-03-09T16:47:04.443Z,7.90
2019-03-09T16:49:33.515Z,7.90
2019-03-09T16:52:02.559Z,7.90
2019-03-09T16:54:31.578Z,7.90
2019-03-09T16:57:00.662Z,7.90
2019-03-09T16:59:29.705Z,7.80
2019-03-09T17:01:58.772Z,7.80
2019-03-09T17:04:27.817Z,7.80
2019-03-09T17:06:56.789Z,7.80
2019-03-09T17:09:25.894Z,7.80
2019-03-09T17:11:54.930Z,7.80
2019-03-09T17:14:24.027Z,7.80
2019-03-09T17:16:53.105Z,7.80
2019-03-09T17:19:22.166Z,7.70
2019-03-09T17:21:51.165Z,7.70
2019-03-09T17:24:20.207Z,7.70
2019-03-09T17:26:49.250Z,7.70
2019-03-09T17:29:18.408Z,7.70
2019-03-09T17:31:47.390Z,7.60
2019-03-09T17:34:16.606Z,7.70
2019-03-09T17:36:45.932Z,7.70
2019-03-09T17:39:15.051Z,7.60
2019-03-09T17:41:44.093Z,7.60
2019-03-09T17:44:13.238Z,7.70
2019-03-09T17:46:42.593Z,7.60
2019-03-09T17:49:11.670Z,7.70
2019-03-09T17:51:40.751Z,7.60
2019-03-09T17:54:09.863Z,7.60
2019-03-09T17:56:38.898Z,7.60
2019-03-09T17:59:07.886Z,7.60
2019-03-09T18:01:36.967Z,7.60
2019-03-09T18:04:05.966Z,7.60
2019-03-09T18:06:35.126Z,7.50
2019-03-09T18:09:05.160Z,7.60
2019-03-09T18:11:34.181Z,7.50
2019-03-09T18:14:06.897Z,7.50
2019-03-09T18:16:34.067Z,7.40
2019-03-09T18:19:03.190Z,7.40
2019-03-09T18:21:32.545Z,7.30
2019-03-09T18:24:01.630Z,7.30
2019-03-09T18:26:30.682Z,7.30
2019-03-09T18:28:59.789Z,7.30
2019-03-09T18:31:28.769Z,7.20
2019-03-09T18:33:57.827Z,7.20
2019-03-09T18:36:26.783Z,7.20
2019-03-09T18:38:55.826Z,7.20
2019-03-09T18:41:24.914Z,7.10
2019-03-09T18:43:54.097Z,7.10
2019-03-09T18:46:23.218Z,7.10
2019-03-09T18:48:52.326Z,7.20
2019-03-09T18:51:21.389Z,7.20
2019-03-09T18:53:50.395Z,7.20
2019-03-09T18:56:19.543Z,7.20
2019-03-09T18:58:48.561Z,7.10
2019-03-09T19:01:17.638Z,7.20
2019-03-09T19:03:46.735Z,7.10
2019-03-09T19:06:15.809Z,7.00
2019-03-09T19:08:44.790Z,7.00
2019-03-09T19:11:13.925Z,6.90
2019-03-09T19:13:42.922Z,6.90
2019-03-09T19:16:12.091Z,6.90
2019-03-09T19:18:41.335Z,6.90
2019-03-09T19:21:10.307Z,6.80
2019-03-09T19:23:39.385Z,6.80
2019-03-09T19:26:08.560Z,6.70
2019-03-09T19:28:37.611Z,6.70
2019-03-09T19:31:06.672Z,6.70
2019-03-09T19:33:35.734Z,6.70
2019-03-09T19:36:04.713Z,6.70
2019-03-09T19:38:33.793Z,6.60
2019-03-09T19:41:03.133Z,6.60
2019-03-09T19:43:32.296Z,6.60
2019-03-09T19:46:01.518Z,6.70
2019-03-09T19:48:30.597Z,6.70
2019-03-09T19:50:59.719Z,6.70
2019-03-09T19:53:28.818Z,6.80
2019-03-09T19:55:57.906Z,6.70
2019-03-09T19:58:27.007Z,6.80
2019-03-09T20:00:56.177Z,6.80
2019-03-09T20:03:25.278Z,6.80
2019-03-09T20:05:54.363Z,6.80
2019-03-09T20:08:23.479Z,6.90
2019-03-09T20:10:52.617Z,6.90
2019-03-09T20:13:21.573Z,6.90
2019-03-09T20:15:50.594Z,7.00
2019-03-09T20:18:19.692Z,7.00
2019-03-09T20:20:48.745Z,7.00
2019-03-09T20:23:17.735Z,7.00
2019-03-09T20:25:46.897Z,7.10
2019-03-09T20:28:16.018Z,7.00
2019-03-09T20:30:45.145Z,7.00
2019-03-09T20:33:14.297Z,7.00
2019-03-09T20:35:43.382Z,7.00
2019-03-09T20:38:12.691Z,7.00
2019-03-09T20:40:41.778Z,7.00
2019-03-09T20:43:10.827Z,7.10
2019-03-09T20:45:40.036Z,7.10
2019-03-09T20:48:09.139Z,7.10
2019-03-09T20:50:38.207Z,7.20
2019-03-09T20:53:07.286Z,7.20
2019-03-09T20:55:36.419Z,7.20
2019-03-09T20:58:05.460Z,7.30
2019-03-09T21:00:34.486Z,7.30
2019-03-09T21:03:03.563Z,7.20
2019-03-09T21:05:32.558Z,7.20
2019-03-09T21:08:01.531Z,7.20
2019-03-09T21:10:30.634Z,7.20
2019-03-09T21:13:04.189Z,7.20
2019-03-09T21:15:33.249Z,7.20
2019-03-09T21:18:02.387Z,7.20
2019-03-09T21:20:33.683Z,7.20
2019-03-09T21:23:02.795Z,7.20
2019-03-09T21:25:31.849Z,7.20
2019-03-09T21:28:00.809Z,7.20
2019-03-09T21:30:29.864Z,7.20
2019-03-09T21:32:58.966Z,7.20
2019-03-09T21:35:28.006Z,7.20
2019-03-09T21:37:57.068Z,7.20
2019-03-09T21:40:26.133Z,7.20
2019-03-09T21:42:55.174Z,7.20
2019-03-09T21:45:24.205Z,7.10
2019-03-09T21:47:53.273Z,7.10
2019-03-09T21:50:22.324Z,7.10
2019-03-09T21:52:51.378Z,7.10
2019-03-09T21:55:20.442Z,7.00
2019-03-09T21:57:49.533Z,7.00
2019-03-09T22:00:18.629Z,7.00
2019-03-09T22:02:50.429Z,6.90
2019-03-09T22:05:19.727Z,6.90
2019-03-09T22:07:48.774Z,6.90
2019-03-09T22:10:17.839Z,6.90
2019-03-09T22:12:46.921Z,6.80
2019-03-09T22:15:15.970Z,6.90
2019-03-09T22:17:45.068Z,6.80
2019-03-09T22:20:14.115Z,6.80
2019-03-09T22:22:43.146Z,6.80
2019-03-09T22:25:12.224Z,6.80
2019-03-09T22:27:41.331Z,6.80
2019-03-09T22:30:11.188Z,6.80
2019-03-09T22:32:40.201Z,6.70
2019-03-09T22:35:11.057Z,6.70
2019-03-09T22:37:40.181Z,6.70
2019-03-09T22:40:09.950Z,6.70
2019-03-09T22:42:38.981Z,6.70
2019-03-09T22:45:08.799Z,6.70
2019-03-09T22:47:37.883Z,6.70
2019-03-09T22:50:08.476Z,6.70
2019-03-09T22:52:37.478Z,6.60
2019-03-09T22:55:06.523Z,6.60
2019-03-09T22:57:35.573Z,6.60
2019-03-09T23:00:04.852Z,6.60
2019-03-09T23:02:33.885Z,6.60
2019-03-09T23:05:02.858Z,6.60
2019-03-09T23:07:31.826Z,6.60
2019-03-09T23:10:00.884Z,6.60
2019-03-09T23:12:29.867Z,6.60
2019-03-09T23:14:58.932Z,6.50
2019-03-09T23:17:28.018Z,6.50
2019-03-09T23:19:57.063Z,6.50
2019-03-09T23:22:28.259Z,6.50
2019-03-09T23:24:56.898Z,6.50
2019-03-09T23:27:25.875Z,6.60
2019-03-09T23:29:54.923Z,6.70
2019-03-09T23:32:23.990Z,6.70
2019-03-09T23:34:52.967Z,6.70
2019-03-09T23:37:22.016Z,6.70
2019-03-09T23:39:51.092Z,6.70
2019-03-09T23:42:20.251Z,6.70
2019-03-09T23:44:49.466Z,6.70
2019-03-09T23:47:18.457Z,6.60
2019-03-09T23:49:47.427Z,6.70
2019-03-09T23:52:16.463Z,6.70
2019-03-09T23:54:45.526Z,6.70
2019-03-09T23:57:14.574Z,6.70
2019-03-09T23:59:43.544Z,6.70
